sensor_id;sensor_type;location;lat;lon;timestamp;P1;durP1;ratioP1;P2;durP2;ratioP2
14209;SDS011;7188;56.070;12.698;2023-02-15T00:01:43;25.07;;;16.83;;
14209;SDS011;7188;56.070;12.698;2023-02-15T00:04:09;22.23;;;15.67;;
14209;SDS011;7188;56.070;12.698;2023-02-15T00:06:37;23.47;;;16.83;;
14209;SDS011;7188;56.070;12.698;2023-02-15T00:09:03;24.70;;;17.30;;
14209;SDS011;7188;56.070;12.698;2023-02-15T00:11:29;28.90;;;18.53;;
14209;SDS011;7188;56.070;12.698;2023-02-15T00:14:15;27.23;;;19.50;;
14209;SDS011;7188;56.070;12.698;2023-02-15T00:16:42;26.37;;;19.17;;
14209;SDS011;7188;56.070;12.698;2023-02-15T00:19:09;22.83;;;16.87;;
14209;SDS011;7188;56.070;12.698;2023-02-15T00:21:36;28.40;;;19.47;;
14209;SDS011;7188;56.070;12.698;2023-02-15T00:24:04;25.50;;;17.53;;
14209;SDS011;7188;56.070;12.698;2023-02-15T00:26:30;21.77;;;15.53;;
14209;SDS011;7188;56.070;12.698;2023-02-15T00:28:57;27.27;;;18.53;;
14209;SDS011;7188;56.070;12.698;2023-02-15T00:31:26;22.80;;;15.70;;
14209;SDS011;7188;56.070;12.698;2023-02-15T00:33:55;25.03;;;17.40;;
14209;SDS011;7188;56.070;12.698;2023-02-15T00:36:25;23.77;;;18.10;;
14209;SDS011;7188;56.070;12.698;2023-02-15T00:38:50;29.17;;;19.67;;
14209;SDS011;7188;56.070;12.698;2023-02-15T00:41:16;23.57;;;16.10;;
14209;SDS011;7188;56.070;12.698;2023-02-15T00:43:42;26.47;;;17.90;;
14209;SDS011;7188;56.070;12.698;2023-02-15T00:46:07;27.50;;;18.03;;
14209;SDS011;7188;56.070;12.698;2023-02-15T00:48:33;25.07;;;17.10;;
14209;SDS011;7188;56.070;12.698;2023-02-15T00:50:59;27.37;;;18.43;;
14209;SDS011;7188;56.070;12.698;2023-02-15T00:53:26;21.73;;;14.33;;
14209;SDS011;7188;56.070;12.698;2023-02-15T00:55:52;24.37;;;17.13;;
14209;SDS011;7188;56.070;12.698;2023-02-15T00:58:18;30.33;;;20.07;;
14209;SDS011;7188;56.070;12.698;2023-02-15T01:00:44;29.97;;;19.07;;
14209;SDS011;7188;56.070;12.698;2023-02-15T01:03:11;28.80;;;17.77;;
14209;SDS011;7188;56.070;12.698;2023-02-15T01:05:38;29.70;;;17.87;;
14209;SDS011;7188;56.070;12.698;2023-02-15T01:08:04;33.93;;;19.57;;
14209;SDS011;7188;56.070;12.698;2023-02-15T01:10:30;28.87;;;18.80;;
14209;SDS011;7188;56.070;12.698;2023-02-15T01:12:56;28.37;;;18.60;;
14209;SDS011;7188;56.070;12.698;2023-02-15T01:15:23;28.47;;;17.87;;
14209;SDS011;7188;56.070;12.698;2023-02-15T01:17:48;30.50;;;19.33;;
14209;SDS011;7188;56.070;12.698;2023-02-15T01:20:21;26.20;;;16.20;;
14209;SDS011;7188;56.070;12.698;2023-02-15T01:22:52;25.27;;;15.20;;
14209;SDS011;7188;56.070;12.698;2023-02-15T01:25:18;33.20;;;19.27;;
14209;SDS011;7188;56.070;12.698;2023-02-15T01:27:46;30.93;;;18.33;;
14209;SDS011;7188;56.070;12.698;2023-02-15T01:30:12;34.17;;;18.83;;
14209;SDS011;7188;56.070;12.698;2023-02-15T01:32:38;29.90;;;17.87;;
14209;SDS011;7188;56.070;12.698;2023-02-15T01:35:04;34.70;;;19.37;;
14209;SDS011;7188;56.070;12.698;2023-02-15T01:37:31;34.40;;;19.27;;
14209;SDS011;7188;56.070;12.698;2023-02-15T01:39:57;34.20;;;19.67;;
14209;SDS011;7188;56.070;12.698;2023-02-15T01:42:25;33.33;;;17.10;;
14209;SDS011;7188;56.070;12.698;2023-02-15T01:50:08;37.27;;;18.77;;
14209;SDS011;7188;56.070;12.698;2023-02-15T01:52:39;35.40;;;19.37;;
14209;SDS011;7188;56.070;12.698;2023-02-15T01:55:17;37.03;;;19.47;;
14209;SDS011;7188;56.070;12.698;2023-02-15T01:57:45;36.47;;;18.60;;
14209;SDS011;7188;56.070;12.698;2023-02-15T02:02:59;31.33;;;17.07;;
14209;SDS011;7188;56.070;12.698;2023-02-15T02:05:26;31.60;;;17.67;;
14209;SDS011;7188;56.070;12.698;2023-02-15T02:07:52;36.90;;;19.27;;
14209;SDS011;7188;56.070;12.698;2023-02-15T02:10:22;32.63;;;19.93;;
14209;SDS011;7188;56.070;12.698;2023-02-15T02:12:49;33.97;;;19.83;;
14209;SDS011;7188;56.070;12.698;2023-02-15T02:15:20;32.67;;;19.13;;
14209;SDS011;7188;56.070;12.698;2023-02-15T02:37:28;38.77;;;20.70;;
14209;SDS011;7188;56.070;12.698;2023-02-15T02:42:44;35.07;;;17.97;;
14209;SDS011;7188;56.070;12.698;2023-02-15T02:48:21;41.33;;;19.83;;
14209;SDS011;7188;56.070;12.698;2023-02-15T02:50:50;43.53;;;22.03;;
14209;SDS011;7188;56.070;12.698;2023-02-15T02:53:16;43.43;;;22.00;;
14209;SDS011;7188;56.070;12.698;2023-02-15T02:55:46;36.13;;;19.33;;
14209;SDS011;7188;56.070;12.698;2023-02-15T02:58:26;45.33;;;22.87;;
14209;SDS011;7188;56.070;12.698;2023-02-15T03:06:29;30.93;;;18.53;;
14209;SDS011;7188;56.070;12.698;2023-02-15T03:09:07;42.90;;;21.43;;
14209;SDS011;7188;56.070;12.698;2023-02-15T03:11:43;41.17;;;24.20;;
14209;SDS011;7188;56.070;12.698;2023-02-15T03:14:10;40.00;;;22.30;;
14209;SDS011;7188;56.070;12.698;2023-02-15T03:16:39;39.23;;;20.47;;
14209;SDS011;7188;56.070;12.698;2023-02-15T03:19:10;48.57;;;25.77;;
14209;SDS011;7188;56.070;12.698;2023-02-15T03:24:12;50.53;;;24.83;;
14209;SDS011;7188;56.070;12.698;2023-02-15T03:26:47;44.93;;;23.97;;
14209;SDS011;7188;56.070;12.698;2023-02-15T03:29:16;49.30;;;25.40;;
14209;SDS011;7188;56.070;12.698;2023-02-15T03:31:45;51.37;;;26.07;;
14209;SDS011;7188;56.070;12.698;2023-02-15T03:34:13;47.57;;;24.90;;
14209;SDS011;7188;56.070;12.698;2023-02-15T03:36:58;52.93;;;25.17;;
14209;SDS011;7188;56.070;12.698;2023-02-15T03:42:10;45.27;;;24.07;;
14209;SDS011;7188;56.070;12.698;2023-02-15T03:45:13;52.13;;;25.70;;
14209;SDS011;7188;56.070;12.698;2023-02-15T03:47:34;52.60;;;25.60;;
14209;SDS011;7188;56.070;12.698;2023-02-15T03:50:06;47.30;;;25.20;;
14209;SDS011;7188;56.070;12.698;2023-02-15T03:52:52;43.63;;;23.17;;
14209;SDS011;7188;56.070;12.698;2023-02-15T03:55:19;53.57;;;27.53;;
14209;SDS011;7188;56.070;12.698;2023-02-15T03:57:45;58.63;;;26.10;;
14209;SDS011;7188;56.070;12.698;2023-02-15T04:00:30;57.87;;;28.57;;
14209;SDS011;7188;56.070;12.698;2023-02-15T04:03:38;53.43;;;28.53;;
14209;SDS011;7188;56.070;12.698;2023-02-15T04:06:06;60.30;;;28.40;;
14209;SDS011;7188;56.070;12.698;2023-02-15T04:08:32;57.30;;;26.43;;
14209;SDS011;7188;56.070;12.698;2023-02-15T04:11:16;50.93;;;24.67;;
14209;SDS011;7188;56.070;12.698;2023-02-15T04:13:42;44.93;;;22.03;;
14209;SDS011;7188;56.070;12.698;2023-02-15T04:16:08;49.50;;;26.63;;
14209;SDS011;7188;56.070;12.698;2023-02-15T04:21:22;62.57;;;30.33;;
14209;SDS011;7188;56.070;12.698;2023-02-15T04:24:08;57.10;;;27.33;;
14209;SDS011;7188;56.070;12.698;2023-02-15T04:26:53;58.20;;;26.70;;
14209;SDS011;7188;56.070;12.698;2023-02-15T04:29:19;59.37;;;30.10;;
14209;SDS011;7188;56.070;12.698;2023-02-15T04:31:46;65.83;;;30.77;;
14209;SDS011;7188;56.070;12.698;2023-02-15T04:34:12;65.70;;;32.53;;
14209;SDS011;7188;56.070;12.698;2023-02-15T04:36:38;62.70;;;32.10;;
14209;SDS011;7188;56.070;12.698;2023-02-15T04:39:04;57.07;;;31.07;;
14209;SDS011;7188;56.070;12.698;2023-02-15T04:41:31;62.40;;;33.67;;
14209;SDS011;7188;56.070;12.698;2023-02-15T04:43:57;57.97;;;29.03;;
14209;SDS011;7188;56.070;12.698;2023-02-15T04:46:24;59.03;;;31.43;;
14209;SDS011;7188;56.070;12.698;2023-02-15T04:48:50;64.27;;;34.30;;
14209;SDS011;7188;56.070;12.698;2023-02-15T04:51:15;66.80;;;34.83;;
14209;SDS011;7188;56.070;12.698;2023-02-15T04:53:59;71.27;;;34.03;;
14209;SDS011;7188;56.070;12.698;2023-02-15T04:56:25;63.33;;;32.80;;
14209;SDS011;7188;56.070;12.698;2023-02-15T04:58:51;69.57;;;34.70;;
14209;SDS011;7188;56.070;12.698;2023-02-15T05:01:16;71.67;;;34.40;;
14209;SDS011;7188;56.070;12.698;2023-02-15T05:03:42;60.17;;;31.00;;
14209;SDS011;7188;56.070;12.698;2023-02-15T05:06:08;70.47;;;41.60;;
14209;SDS011;7188;56.070;12.698;2023-02-15T05:08:34;68.10;;;36.50;;
14209;SDS011;7188;56.070;12.698;2023-02-15T05:10:59;58.83;;;33.57;;
14209;SDS011;7188;56.070;12.698;2023-02-15T05:13:25;61.37;;;32.80;;
14209;SDS011;7188;56.070;12.698;2023-02-15T05:15:51;63.00;;;33.00;;
14209;SDS011;7188;56.070;12.698;2023-02-15T05:18:18;61.50;;;33.20;;
14209;SDS011;7188;56.070;12.698;2023-02-15T05:20:45;62.60;;;31.90;;
14209;SDS011;7188;56.070;12.698;2023-02-15T05:23:11;59.70;;;28.63;;
14209;SDS011;7188;56.070;12.698;2023-02-15T05:25:37;71.47;;;35.07;;
14209;SDS011;7188;56.070;12.698;2023-02-15T05:28:22;66.43;;;34.43;;
14209;SDS011;7188;56.070;12.698;2023-02-15T05:31:34;57.53;;;30.33;;
14209;SDS011;7188;56.070;12.698;2023-02-15T05:33:39;74.27;;;36.87;;
14209;SDS011;7188;56.070;12.698;2023-02-15T05:36:05;57.90;;;29.97;;
14209;SDS011;7188;56.070;12.698;2023-02-15T05:38:31;70.63;;;35.87;;
14209;SDS011;7188;56.070;12.698;2023-02-15T05:40:57;66.60;;;32.87;;
14209;SDS011;7188;56.070;12.698;2023-02-15T05:43:24;66.77;;;33.53;;
14209;SDS011;7188;56.070;12.698;2023-02-15T05:45:51;61.50;;;32.77;;
14209;SDS011;7188;56.070;12.698;2023-02-15T05:48:18;68.83;;;34.73;;
14209;SDS011;7188;56.070;12.698;2023-02-15T05:50:45;67.70;;;34.37;;
14209;SDS011;7188;56.070;12.698;2023-02-15T05:53:11;61.73;;;30.97;;
14209;SDS011;7188;56.070;12.698;2023-02-15T05:55:37;67.33;;;33.83;;
14209;SDS011;7188;56.070;12.698;2023-02-15T05:58:06;58.97;;;29.60;;
14209;SDS011;7188;56.070;12.698;2023-02-15T06:00:35;60.83;;;32.50;;
14209;SDS011;7188;56.070;12.698;2023-02-15T06:03:01;64.60;;;35.50;;
14209;SDS011;7188;56.070;12.698;2023-02-15T06:05:27;69.90;;;36.13;;
14209;SDS011;7188;56.070;12.698;2023-02-15T06:07:52;67.47;;;35.60;;
14209;SDS011;7188;56.070;12.698;2023-02-15T06:10:18;67.23;;;35.00;;
14209;SDS011;7188;56.070;12.698;2023-02-15T06:12:44;69.77;;;36.40;;
14209;SDS011;7188;56.070;12.698;2023-02-15T06:15:10;64.30;;;31.43;;
14209;SDS011;7188;56.070;12.698;2023-02-15T06:17:35;69.07;;;34.93;;
14209;SDS011;7188;56.070;12.698;2023-02-15T06:20:01;67.63;;;35.47;;
14209;SDS011;7188;56.070;12.698;2023-02-15T06:22:27;63.93;;;33.60;;
14209;SDS011;7188;56.070;12.698;2023-02-15T06:24:53;64.00;;;32.53;;
14209;SDS011;7188;56.070;12.698;2023-02-15T06:27:19;76.70;;;37.13;;
14209;SDS011;7188;56.070;12.698;2023-02-15T06:29:47;72.33;;;37.27;;
14209;SDS011;7188;56.070;12.698;2023-02-15T06:32:12;61.87;;;31.67;;
14209;SDS011;7188;56.070;12.698;2023-02-15T06:34:38;70.03;;;35.93;;
14209;SDS011;7188;56.070;12.698;2023-02-15T06:37:04;71.37;;;35.90;;
14209;SDS011;7188;56.070;12.698;2023-02-15T06:39:29;67.20;;;34.17;;
14209;SDS011;7188;56.070;12.698;2023-02-15T06:41:55;66.67;;;35.50;;
14209;SDS011;7188;56.070;12.698;2023-02-15T06:44:20;66.47;;;34.67;;
14209;SDS011;7188;56.070;12.698;2023-02-15T06:46:46;71.43;;;35.70;;
14209;SDS011;7188;56.070;12.698;2023-02-15T06:49:13;68.30;;;34.20;;
14209;SDS011;7188;56.070;12.698;2023-02-15T06:51:38;71.37;;;35.03;;
14209;SDS011;7188;56.070;12.698;2023-02-15T06:54:04;64.63;;;33.37;;
14209;SDS011;7188;56.070;12.698;2023-02-15T06:56:30;68.27;;;34.30;;
14209;SDS011;7188;56.070;12.698;2023-02-15T06:58:55;65.20;;;32.13;;
14209;SDS011;7188;56.070;12.698;2023-02-15T07:01:21;63.87;;;32.83;;
14209;SDS011;7188;56.070;12.698;2023-02-15T07:03:47;50.73;;;28.40;;
14209;SDS011;7188;56.070;12.698;2023-02-15T07:06:12;58.80;;;30.07;;
14209;SDS011;7188;56.070;12.698;2023-02-15T07:08:38;61.10;;;30.63;;
14209;SDS011;7188;56.070;12.698;2023-02-15T07:11:04;59.67;;;28.37;;
14209;SDS011;7188;56.070;12.698;2023-02-15T07:13:49;58.53;;;29.37;;
14209;SDS011;7188;56.070;12.698;2023-02-15T07:16:17;63.13;;;32.80;;
14209;SDS011;7188;56.070;12.698;2023-02-15T07:18:43;54.60;;;28.80;;
14209;SDS011;7188;56.070;12.698;2023-02-15T07:21:09;61.37;;;32.60;;
14209;SDS011;7188;56.070;12.698;2023-02-15T07:23:38;46.50;;;25.07;;
14209;SDS011;7188;56.070;12.698;2023-02-15T07:26:05;55.97;;;30.27;;
14209;SDS011;7188;56.070;12.698;2023-02-15T07:28:32;58.80;;;29.77;;
14209;SDS011;7188;56.070;12.698;2023-02-15T07:31:00;60.20;;;30.80;;
14209;SDS011;7188;56.070;12.698;2023-02-15T07:33:27;71.27;;;33.53;;
14209;SDS011;7188;56.070;12.698;2023-02-15T07:35:55;68.83;;;33.50;;
14209;SDS011;7188;56.070;12.698;2023-02-15T07:38:23;54.10;;;27.40;;
14209;SDS011;7188;56.070;12.698;2023-02-15T07:40:49;66.27;;;34.03;;
14209;SDS011;7188;56.070;12.698;2023-02-15T07:43:15;63.67;;;31.90;;
14209;SDS011;7188;56.070;12.698;2023-02-15T07:45:41;72.50;;;35.33;;
14209;SDS011;7188;56.070;12.698;2023-02-15T07:48:08;68.50;;;32.07;;
14209;SDS011;7188;56.070;12.698;2023-02-15T07:50:33;62.13;;;32.80;;
14209;SDS011;7188;56.070;12.698;2023-02-15T07:53:01;61.97;;;30.00;;
14209;SDS011;7188;56.070;12.698;2023-02-15T07:55:27;67.33;;;33.20;;
14209;SDS011;7188;56.070;12.698;2023-02-15T07:57:53;72.57;;;35.10;;
14209;SDS011;7188;56.070;12.698;2023-02-15T08:00:19;64.20;;;31.73;;
14209;SDS011;7188;56.070;12.698;2023-02-15T08:02:54;73.67;;;35.43;;
14209;SDS011;7188;56.070;12.698;2023-02-15T08:05:39;73.53;;;34.50;;
14209;SDS011;7188;56.070;12.698;2023-02-15T08:08:06;68.43;;;33.00;;
14209;SDS011;7188;56.070;12.698;2023-02-15T08:10:32;64.50;;;33.37;;
14209;SDS011;7188;56.070;12.698;2023-02-15T08:13:17;65.60;;;33.10;;
14209;SDS011;7188;56.070;12.698;2023-02-15T08:15:49;68.10;;;34.03;;
14209;SDS011;7188;56.070;12.698;2023-02-15T08:18:15;75.70;;;37.20;;
14209;SDS011;7188;56.070;12.698;2023-02-15T08:20:41;66.87;;;32.50;;
14209;SDS011;7188;56.070;12.698;2023-02-15T08:23:07;74.07;;;36.70;;
14209;SDS011;7188;56.070;12.698;2023-02-15T08:25:32;77.70;;;35.90;;
14209;SDS011;7188;56.070;12.698;2023-02-15T08:27:58;64.60;;;31.63;;
14209;SDS011;7188;56.070;12.698;2023-02-15T08:30:23;74.93;;;34.77;;
14209;SDS011;7188;56.070;12.698;2023-02-15T08:32:49;77.67;;;35.97;;
14209;SDS011;7188;56.070;12.698;2023-02-15T08:35:14;73.00;;;34.40;;
14209;SDS011;7188;56.070;12.698;2023-02-15T08:37:40;74.70;;;34.63;;
14209;SDS011;7188;56.070;12.698;2023-02-15T08:40:06;71.13;;;34.23;;
14209;SDS011;7188;56.070;12.698;2023-02-15T08:42:32;73.60;;;35.27;;
14209;SDS011;7188;56.070;12.698;2023-02-15T08:44:59;78.83;;;34.63;;
14209;SDS011;7188;56.070;12.698;2023-02-15T08:47:30;73.53;;;34.77;;
14209;SDS011;7188;56.070;12.698;2023-02-15T08:49:56;83.05;;;44.80;;
14209;SDS011;7188;56.070;12.698;2023-02-15T08:52:21;67.47;;;32.80;;
14209;SDS011;7188;56.070;12.698;2023-02-15T08:54:47;77.77;;;37.63;;
14209;SDS011;7188;56.070;12.698;2023-02-15T08:57:14;75.20;;;33.77;;
14209;SDS011;7188;56.070;12.698;2023-02-15T09:02:47;76.23;;;35.47;;
14209;SDS011;7188;56.070;12.698;2023-02-15T09:05:13;73.40;;;35.50;;
14209;SDS011;7188;56.070;12.698;2023-02-15T09:07:39;81.70;;;38.83;;
14209;SDS011;7188;56.070;12.698;2023-02-15T09:10:05;83.23;;;37.47;;
14209;SDS011;7188;56.070;12.698;2023-02-15T09:12:31;80.30;;;38.20;;
14209;SDS011;7188;56.070;12.698;2023-02-15T09:14:57;82.60;;;37.93;;
14209;SDS011;7188;56.070;12.698;2023-02-15T09:17:24;76.03;;;37.67;;
14209;SDS011;7188;56.070;12.698;2023-02-15T09:19:50;83.63;;;38.93;;
14209;SDS011;7188;56.070;12.698;2023-02-15T09:22:16;75.90;;;36.00;;
14209;SDS011;7188;56.070;12.698;2023-02-15T09:24:42;70.70;;;32.60;;
14209;SDS011;7188;56.070;12.698;2023-02-15T09:27:08;82.27;;;37.43;;
14209;SDS011;7188;56.070;12.698;2023-02-15T09:29:33;86.90;;;38.70;;
14209;SDS011;7188;56.070;12.698;2023-02-15T09:31:59;82.07;;;39.63;;
14209;SDS011;7188;56.070;12.698;2023-02-15T09:34:25;81.47;;;37.30;;
14209;SDS011;7188;56.070;12.698;2023-02-15T09:36:50;85.03;;;38.07;;
14209;SDS011;7188;56.070;12.698;2023-02-15T09:39:17;91.80;;;40.97;;
14209;SDS011;7188;56.070;12.698;2023-02-15T09:50:16;90.67;;;41.33;;
14209;SDS011;7188;56.070;12.698;2023-02-15T09:58:34;82.60;;;39.83;;
14209;SDS011;7188;56.070;12.698;2023-02-15T10:06:28;95.93;;;42.73;;
14209;SDS011;7188;56.070;12.698;2023-02-15T10:25:54;70.87;;;35.63;;
14209;SDS011;7188;56.070;12.698;2023-02-15T10:34:10;69.90;;;36.47;;
14209;SDS011;7188;56.070;12.698;2023-02-15T10:37:21;66.07;;;34.93;;
14209;SDS011;7188;56.070;12.698;2023-02-15T10:50:51;67.83;;;34.80;;
14209;SDS011;7188;56.070;12.698;2023-02-15T10:56:45;77.10;;;38.23;;
14209;SDS011;7188;56.070;12.698;2023-02-15T11:02:18;79.00;;;39.03;;
14209;SDS011;7188;56.070;12.698;2023-02-15T11:04:59;76.87;;;40.57;;
14209;SDS011;7188;56.070;12.698;2023-02-15T11:07:43;74.30;;;38.27;;
14209;SDS011;7188;56.070;12.698;2023-02-15T11:10:18;75.23;;;37.60;;
14209;SDS011;7188;56.070;12.698;2023-02-15T11:12:57;75.53;;;38.40;;
14209;SDS011;7188;56.070;12.698;2023-02-15T11:15:29;75.50;;;39.83;;
14209;SDS011;7188;56.070;12.698;2023-02-15T11:18:12;70.13;;;36.90;;
14209;SDS011;7188;56.070;12.698;2023-02-15T11:20:58;76.87;;;37.13;;
14209;SDS011;7188;56.070;12.698;2023-02-15T11:23:26;78.03;;;37.90;;
14209;SDS011;7188;56.070;12.698;2023-02-15T11:25:57;80.17;;;39.27;;
14209;SDS011;7188;56.070;12.698;2023-02-15T11:28:31;79.13;;;39.37;;
14209;SDS011;7188;56.070;12.698;2023-02-15T11:31:02;81.57;;;41.23;;
14209;SDS011;7188;56.070;12.698;2023-02-15T11:33:45;70.53;;;35.73;;
14209;SDS011;7188;56.070;12.698;2023-02-15T11:36:19;77.97;;;39.47;;
14209;SDS011;7188;56.070;12.698;2023-02-15T11:38:49;75.70;;;40.10;;
14209;SDS011;7188;56.070;12.698;2023-02-15T11:41:21;75.87;;;39.57;;
14209;SDS011;7188;56.070;12.698;2023-02-15T11:43:53;75.67;;;37.10;;
14209;SDS011;7188;56.070;12.698;2023-02-15T11:46:25;74.63;;;38.77;;
14209;SDS011;7188;56.070;12.698;2023-02-15T11:48:50;72.90;;;38.40;;
14209;SDS011;7188;56.070;12.698;2023-02-15T11:51:17;74.50;;;38.03;;
14209;SDS011;7188;56.070;12.698;2023-02-15T11:53:45;74.73;;;37.53;;
14209;SDS011;7188;56.070;12.698;2023-02-15T11:56:45;72.90;;;37.40;;
14209;SDS011;7188;56.070;12.698;2023-02-15T11:59:09;78.47;;;38.87;;
14209;SDS011;7188;56.070;12.698;2023-02-15T12:01:46;85.57;;;39.23;;
14209;SDS011;7188;56.070;12.698;2023-02-15T12:12:55;82.30;;;40.20;;
14209;SDS011;7188;56.070;12.698;2023-02-15T12:15:35;87.93;;;39.80;;
14209;SDS011;7188;56.070;12.698;2023-02-15T12:18:02;81.03;;;37.23;;
14209;SDS011;7188;56.070;12.698;2023-02-15T12:20:29;73.20;;;39.77;;
14209;SDS011;7188;56.070;12.698;2023-02-15T12:23:02;86.93;;;40.30;;
14209;SDS011;7188;56.070;12.698;2023-02-15T12:25:41;86.10;;;40.97;;
14209;SDS011;7188;56.070;12.698;2023-02-15T12:28:40;82.77;;;39.83;;
14209;SDS011;7188;56.070;12.698;2023-02-15T12:31:49;85.97;;;41.30;;
14209;SDS011;7188;56.070;12.698;2023-02-15T12:34:12;82.47;;;40.00;;
14209;SDS011;7188;56.070;12.698;2023-02-15T12:36:53;79.17;;;38.43;;
14209;SDS011;7188;56.070;12.698;2023-02-15T12:39:29;83.00;;;38.87;;
14209;SDS011;7188;56.070;12.698;2023-02-15T12:42:00;82.27;;;40.53;;
14209;SDS011;7188;56.070;12.698;2023-02-15T12:49:42;75.10;;;38.97;;
14209;SDS011;7188;56.070;12.698;2023-02-15T12:54:45;79.03;;;39.63;;
14209;SDS011;7188;56.070;12.698;2023-02-15T12:57:27;80.03;;;36.87;;
14209;SDS011;7188;56.070;12.698;2023-02-15T13:02:29;71.77;;;37.07;;
14209;SDS011;7188;56.070;12.698;2023-02-15T13:04:56;67.73;;;36.30;;
14209;SDS011;7188;56.070;12.698;2023-02-15T13:07:30;72.33;;;37.33;;
14209;SDS011;7188;56.070;12.698;2023-02-15T13:09:56;75.60;;;37.37;;
14209;SDS011;7188;56.070;12.698;2023-02-15T13:12:23;76.40;;;36.70;;
14209;SDS011;7188;56.070;12.698;2023-02-15T13:15:22;70.07;;;36.67;;
14209;SDS011;7188;56.070;12.698;2023-02-15T13:17:58;75.47;;;39.60;;
14209;SDS011;7188;56.070;12.698;2023-02-15T13:20:24;68.67;;;32.73;;
14209;SDS011;7188;56.070;12.698;2023-02-15T13:22:53;78.90;;;40.27;;
14209;SDS011;7188;56.070;12.698;2023-02-15T13:25:32;77.40;;;38.90;;
14209;SDS011;7188;56.070;12.698;2023-02-15T13:28:11;78.23;;;41.23;;
14209;SDS011;7188;56.070;12.698;2023-02-15T13:30:42;77.37;;;38.03;;
14209;SDS011;7188;56.070;12.698;2023-02-15T13:33:14;74.33;;;38.20;;
14209;SDS011;7188;56.070;12.698;2023-02-15T13:36:00;75.77;;;38.80;;
14209;SDS011;7188;56.070;12.698;2023-02-15T13:41:16;82.60;;;38.23;;
14209;SDS011;7188;56.070;12.698;2023-02-15T13:43:59;85.20;;;38.90;;
14209;SDS011;7188;56.070;12.698;2023-02-15T13:49:14;84.43;;;38.77;;
14209;SDS011;7188;56.070;12.698;2023-02-15T13:52:07;87.20;;;40.53;;
14209;SDS011;7188;56.070;12.698;2023-02-15T13:57:44;78.53;;;36.47;;
14209;SDS011;7188;56.070;12.698;2023-02-15T14:00:22;85.07;;;38.50;;
14209;SDS011;7188;56.070;12.698;2023-02-15T14:08:07;76.37;;;34.97;;
14209;SDS011;7188;56.070;12.698;2023-02-15T14:10:46;74.53;;;36.80;;
14209;SDS011;7188;56.070;12.698;2023-02-15T14:21:27;84.17;;;38.37;;
14209;SDS011;7188;56.070;12.698;2023-02-15T14:23:58;84.50;;;38.70;;
14209;SDS011;7188;56.070;12.698;2023-02-15T14:26:52;82.13;;;34.70;;
14209;SDS011;7188;56.070;12.698;2023-02-15T14:29:24;77.33;;;37.63;;
14209;SDS011;7188;56.070;12.698;2023-02-15T14:32:28;75.17;;;36.43;;
14209;SDS011;7188;56.070;12.698;2023-02-15T14:34:59;84.47;;;36.87;;
14209;SDS011;7188;56.070;12.698;2023-02-15T14:37:29;85.20;;;35.83;;
14209;SDS011;7188;56.070;12.698;2023-02-15T14:44:10;81.73;;;36.10;;
14209;SDS011;7188;56.070;12.698;2023-02-15T14:46:21;87.60;;;37.67;;
14209;SDS011;7188;56.070;12.698;2023-02-15T14:54:08;86.43;;;36.10;;
14209;SDS011;7188;56.070;12.698;2023-02-15T14:56:35;86.87;;;37.57;;
14209;SDS011;7188;56.070;12.698;2023-02-15T14:59:11;85.20;;;36.13;;
14209;SDS011;7188;56.070;12.698;2023-02-15T15:01:50;95.80;;;41.07;;
14209;SDS011;7188;56.070;12.698;2023-02-15T15:04:34;85.90;;;37.40;;
14209;SDS011;7188;56.070;12.698;2023-02-15T15:07:22;96.27;;;41.23;;
14209;SDS011;7188;56.070;12.698;2023-02-15T15:14:58;100.37;;;42.20;;
14209;SDS011;7188;56.070;12.698;2023-02-15T15:22:42;99.87;;;39.70;;
14209;SDS011;7188;56.070;12.698;2023-02-15T15:27:51;103.53;;;39.20;;
14209;SDS011;7188;56.070;12.698;2023-02-15T15:32:50;87.23;;;34.63;;
14209;SDS011;7188;56.070;12.698;2023-02-15T15:48:55;104.80;;;40.23;;
14209;SDS011;7188;56.070;12.698;2023-02-15T15:51:46;112.67;;;42.23;;
14209;SDS011;7188;56.070;12.698;2023-02-15T15:54:16;115.40;;;44.20;;
14209;SDS011;7188;56.070;12.698;2023-02-15T15:56:48;107.83;;;43.37;;
14209;SDS011;7188;56.070;12.698;2023-02-15T15:59:22;114.97;;;42.27;;
14209;SDS011;7188;56.070;12.698;2023-02-15T16:01:50;111.27;;;42.77;;
14209;SDS011;7188;56.070;12.698;2023-02-15T16:04:34;115.30;;;44.80;;
14209;SDS011;7188;56.070;12.698;2023-02-15T16:09:41;117.17;;;41.73;;
14209;SDS011;7188;56.070;12.698;2023-02-15T16:12:33;111.93;;;41.87;;
14209;SDS011;7188;56.070;12.698;2023-02-15T16:17:58;101.00;;;39.93;;
14209;SDS011;7188;56.070;12.698;2023-02-15T16:29:12;104.47;;;40.90;;
14209;SDS011;7188;56.070;12.698;2023-02-15T16:31:40;110.40;;;38.77;;
14209;SDS011;7188;56.070;12.698;2023-02-15T16:34:09;103.83;;;39.17;;
14209;SDS011;7188;56.070;12.698;2023-02-15T16:36:42;108.77;;;38.87;;
14209;SDS011;7188;56.070;12.698;2023-02-15T16:39:18;104.10;;;38.73;;
14209;SDS011;7188;56.070;12.698;2023-02-15T16:41:45;102.83;;;39.93;;
14209;SDS011;7188;56.070;12.698;2023-02-15T16:44:15;134.50;;;42.70;;
14209;SDS011;7188;56.070;12.698;2023-02-15T16:46:45;118.13;;;40.50;;
14209;SDS011;7188;56.070;12.698;2023-02-15T16:49:15;99.53;;;38.57;;
14209;SDS011;7188;56.070;12.698;2023-02-15T16:51:44;107.77;;;39.37;;
14209;SDS011;7188;56.070;12.698;2023-02-15T16:54:16;107.90;;;38.17;;
14209;SDS011;7188;56.070;12.698;2023-02-15T16:56:45;118.87;;;41.43;;
14209;SDS011;7188;56.070;12.698;2023-02-15T17:02:17;118.83;;;41.13;;
14209;SDS011;7188;56.070;12.698;2023-02-15T17:07:42;167.37;;;44.37;;
14209;SDS011;7188;56.070;12.698;2023-02-15T17:10:33;118.40;;;41.93;;
14209;SDS011;7188;56.070;12.698;2023-02-15T17:13:09;127.43;;;42.57;;
14209;SDS011;7188;56.070;12.698;2023-02-15T17:15:43;109.67;;;38.97;;
14209;SDS011;7188;56.070;12.698;2023-02-15T17:18:39;113.87;;;44.63;;
14209;SDS011;7188;56.070;12.698;2023-02-15T17:21:11;129.67;;;43.47;;
14209;SDS011;7188;56.070;12.698;2023-02-15T17:23:42;122.03;;;43.10;;
14209;SDS011;7188;56.070;12.698;2023-02-15T17:26:12;134.93;;;44.67;;
14209;SDS011;7188;56.070;12.698;2023-02-15T17:31:18;108.37;;;39.73;;
14209;SDS011;7188;56.070;12.698;2023-02-15T17:33:46;120.23;;;42.67;;
14209;SDS011;7188;56.070;12.698;2023-02-15T17:36:13;110.77;;;41.67;;
14209;SDS011;7188;56.070;12.698;2023-02-15T17:41:22;123.40;;;43.67;;
14209;SDS011;7188;56.070;12.698;2023-02-15T17:43:48;107.63;;;40.63;;
14209;SDS011;7188;56.070;12.698;2023-02-15T17:46:13;110.60;;;40.23;;
14209;SDS011;7188;56.070;12.698;2023-02-15T17:48:41;115.23;;;45.23;;
14209;SDS011;7188;56.070;12.698;2023-02-15T17:51:09;128.33;;;45.33;;
14209;SDS011;7188;56.070;12.698;2023-02-15T17:53:37;113.20;;;41.57;;
14209;SDS011;7188;56.070;12.698;2023-02-15T17:56:03;118.93;;;42.07;;
14209;SDS011;7188;56.070;12.698;2023-02-15T17:58:34;161.27;;;41.63;;
14209;SDS011;7188;56.070;12.698;2023-02-15T18:01:01;121.60;;;40.77;;
14209;SDS011;7188;56.070;12.698;2023-02-15T18:03:50;114.80;;;39.80;;
14209;SDS011;7188;56.070;12.698;2023-02-15T18:06:39;104.50;;;38.83;;
14209;SDS011;7188;56.070;12.698;2023-02-15T18:09:25;129.57;;;39.77;;
14209;SDS011;7188;56.070;12.698;2023-02-15T18:12:20;127.07;;;37.23;;
14209;SDS011;7188;56.070;12.698;2023-02-15T18:15:08;127.77;;;40.67;;